Lonepine, Louisiana
Current Conditions -  °F | °C
As of 7:55 AM on Monday 24 Nov 2014 (Local Time) from KACP Reporting Station
Clear Clear  
Wind Chill: 52°   Ceiling: Unl
Heat Index: 52°   Visibility: 10mi
Dew Point: 46°   Wind: 7mph
Humidity: 80%   Direction: 320°NW
Pressure: 29.94"   Gusts: NA
Location:  30.8509°N, 92.4107°W
Report Text: KACP 241355Z AUTO 32006KT 10SM CLR 11/08 A2994 RMK AO2 T01090075
Loading
Personal Weather Stations






























Interactive Weather Map New forecast layout! Learn more

10-Day Weather Forecast

Advertisements
Track Severe Weather on mobile